Time;durP1;ratioP1;P1;durP2;ratioP2;P2;SDS_P1;SDS_P2;PMS_P1;PMS_P2;Temp;Humidity;BMP_temperature;BMP_pressure;BME280_temperature;BME280_humidity;BME280_pressure;Samples;Min_cycle;Max_cycle;Signal;HPM_P1;HPM_P2
2024/04/07 00:01:54;;;;;;;;;;;;;;;14.18;100.00;95935.81;5028986;28;20195;-76
2024/04/07 00:04:20;;;;;;;;;;;;;;;14.16;100.00;95932.63;5029465;28;19936;-74
2024/04/07 00:06:46;;;;;;;;;;;;;;;14.12;100.00;95926.19;5030002;28;19929;-77
2024/04/07 00:09:12;;;;;;;;;;;;;;;14.03;100.00;95926.84;5029342;28;19929;-74
2024/04/07 00:11:38;;;;;;;;;;;;;;;13.98;100.00;95928.81;5029180;28;19933;-76
2024/04/07 00:14:05;;;;;;;;;;;;;;;14.00;100.00;95922.03;5031240;28;19929;-73
2024/04/07 00:16:31;;;;;;;;;;;;;;;13.99;100.00;95925.81;5031634;28;20413;-73
2024/04/07 00:18:57;;;;;;;;;;;;;;;13.96;100.00;95920.97;5015093;28;19929;-74
2024/04/07 00:21:23;;;;;;;;;;;;;;;13.95;100.00;95915.91;5029509;28;19929;-76
2024/04/07 00:23:50;;;;;;;;;;;;;;;13.92;100.00;95914.56;5030741;28;19936;-75
2024/04/07 00:26:16;;;;;;;;;;;;;;;13.90;100.00;95915.94;5027193;28;19925;-76
2024/04/07 00:28:43;;;;;;;;;;;;;;;13.85;100.00;95911.44;5028338;28;20391;-76
2024/04/07 00:31:09;;;;;;;;;;;;;;;13.87;100.00;95911.13;4997605;28;20306;-76
2024/04/07 00:33:35;;;;;;;;;;;;;;;13.80;100.00;95908.81;5028810;28;19936;-73
2024/04/07 00:36:02;;;;;;;;;;;;;;;13.78;100.00;95907.47;5027957;28;19936;-73
2024/04/07 00:38:29;;;;;;;;;;;;;;;13.82;100.00;95908.50;5029340;28;19932;-74
2024/04/07 00:40:56;;;;;;;;;;;;;;;13.83;100.00;95905.50;5029932;28;19952;-75
2024/04/07 00:43:23;;;;;;;;;;;;;;;13.86;100.00;95904.13;5029640;28;19936;-76
2024/04/07 00:45:49;;;;;;;;;;;;;;;13.80;100.00;95899.88;5028612;28;20405;-76
2024/04/07 00:48:17;;;;;;;;;;;;;;;13.84;100.00;95906.31;5028277;28;19929;-77
2024/04/07 00:50:44;;;;;;;;;;;;;;;13.82;100.00;95903.88;5031286;28;19928;-77
2024/04/07 00:53:10;;;;;;;;;;;;;;;13.83;100.00;95904.69;5011532;28;20331;-74
2024/04/07 00:55:37;;;;;;;;;;;;;;;13.85;100.00;95906.03;5028779;28;19929;-74
2024/04/07 00:58:04;;;;;;;;;;;;;;;13.84;100.00;95896.31;5028746;28;19929;-78
2024/04/07 01:00:31;;;;;;;;;;;;;;;13.83;100.00;95892.00;5028899;28;19936;-78
2024/04/07 01:02:57;;;;;;;;;;;;;;;13.80;100.00;95889.09;5027322;28;19929;-73
2024/04/07 01:05:23;;;;;;;;;;;;;;;13.74;100.00;95892.91;5030305;28;19952;-74
2024/04/07 01:07:49;;;;;;;;;;;;;;;13.73;100.00;95894.84;5028070;28;20306;-75
2024/04/07 01:10:15;;;;;;;;;;;;;;;13.74;100.00;95891.03;5030795;28;19936;-73
2024/04/07 01:12:52;;;;;;;;;;;;;;;13.72;100.00;95895.94;5028729;28;20381;-75
2024/04/07 01:15:18;;;;;;;;;;;;;;;13.73;100.00;95889.44;5031343;28;19929;-76
2024/04/07 01:17:45;;;;;;;;;;;;;;;13.77;100.00;95900.47;5033517;28;19929;-75
2024/04/07 01:20:13;;;;;;;;;;;;;;;13.81;100.00;95896.06;5031796;28;20290;-73
2024/04/07 01:22:39;;;;;;;;;;;;;;;13.78;100.00;95891.25;5034840;28;20347;-75
2024/04/07 01:25:06;;;;;;;;;;;;;;;13.74;100.00;95885.63;5035582;28;19936;-75
2024/04/07 01:27:32;;;;;;;;;;;;;;;13.74;100.00;95884.81;5033004;28;20370;-73
2024/04/07 01:29:58;;;;;;;;;;;;;;;13.69;100.00;95888.41;5032583;28;20334;-74
2024/04/07 01:32:24;;;;;;;;;;;;;;;13.61;100.00;95884.44;5032013;28;19935;-73
2024/04/07 01:34:50;;;;;;;;;;;;;;;13.60;100.00;95882.84;5033725;28;20437;-75
2024/04/07 01:37:16;;;;;;;;;;;;;;;13.59;100.00;95888.53;5031822;28;19929;-74
2024/04/07 01:39:42;;;;;;;;;;;;;;;13.59;100.00;95883.13;5030045;28;19936;-75
2024/04/07 01:42:08;;;;;;;;;;;;;;;13.61;100.00;95880.94;5032064;28;19929;-76
2024/04/07 01:44:35;;;;;;;;;;;;;;;13.59;100.00;95880.41;5032984;28;19929;-77
2024/04/07 01:47:01;;;;;;;;;;;;;;;13.59;100.00;95877.72;5029406;28;20302;-77
2024/04/07 01:49:27;;;;;;;;;;;;;;;13.56;100.00;95872.91;5033153;28;19960;-75
2024/04/07 01:51:53;;;;;;;;;;;;;;;13.53;100.00;95877.00;5030917;28;19936;-73
2024/04/07 01:54:19;;;;;;;;;;;;;;;13.52;100.00;95878.06;5032656;28;19940;-77
2024/04/07 01:56:45;;;;;;;;;;;;;;;13.52;100.00;95879.97;5031826;28;19955;-75
2024/04/07 01:59:11;;;;;;;;;;;;;;;13.49;100.00;95883.28;5033655;28;20306;-74
2024/04/07 02:01:37;;;;;;;;;;;;;;;13.49;100.00;95885.97;5031224;28;19936;-73
2024/04/07 02:04:04;;;;;;;;;;;;;;;13.48;100.00;95889.75;5032708;28;19928;-75
2024/04/07 02:06:30;;;;;;;;;;;;;;;13.45;100.00;95893.03;5031535;28;19933;-77
2024/04/07 02:08:56;;;;;;;;;;;;;;;13.39;100.00;95888.78;5031519;28;19929;-75
2024/04/07 02:11:22;;;;;;;;;;;;;;;13.33;100.00;95884.53;5016819;28;19951;-75
2024/04/07 02:13:48;;;;;;;;;;;;;;;13.29;100.00;95883.53;5031856;28;19929;-74
2024/04/07 02:16:14;;;;;;;;;;;;;;;13.27;100.00;95877.59;5032418;28;19937;-78
2024/04/07 02:18:40;;;;;;;;;;;;;;;13.24;100.00;95881.66;5030919;28;20756;-75
2024/04/07 02:21:06;;;;;;;;;;;;;;;13.24;100.00;95876.28;5031170;28;19929;-74
2024/04/07 02:23:32;;;;;;;;;;;;;;;13.20;100.00;95873.34;5031650;28;19939;-76
2024/04/07 02:25:59;;;;;;;;;;;;;;;13.14;100.00;95868.31;5032136;28;19936;-75
2024/04/07 02:28:25;;;;;;;;;;;;;;;13.10;100.00;95865.34;5030884;28;19933;-76
2024/04/07 02:30:52;;;;;;;;;;;;;;;13.12;100.00;95860.47;5033370;28;19929;-75
2024/04/07 02:33:18;;;;;;;;;;;;;;;13.11;100.00;95858.84;5031628;28;19925;-78
2024/04/07 02:35:44;;;;;;;;;;;;;;;13.11;100.00;95872.34;5031982;28;19929;-74
2024/04/07 02:38:10;;;;;;;;;;;;;;;13.12;100.00;95867.75;5030499;28;19929;-75
2024/04/07 02:40:36;;;;;;;;;;;;;;;13.10;100.00;95870.72;5031714;28;19929;-76
2024/04/07 02:43:03;;;;;;;;;;;;;;;13.09;100.00;95874.53;5032738;28;19936;-75
2024/04/07 02:48:14;;;;;;;;;;;;;;;12.99;100.00;95863.06;5031072;28;19936;-75
2024/04/07 02:50:40;;;;;;;;;;;;;;;12.96;100.00;95859.03;5031676;28;19940;-74
2024/04/07 02:53:07;;;;;;;;;;;;;;;12.97;100.00;95852.53;5031149;28;19944;-75
2024/04/07 02:55:33;;;;;;;;;;;;;;;12.96;100.00;95853.63;5470982;22;21131;-72
2024/04/07 02:57:59;;;;;;;;;;;;;;;12.95;100.00;95849.31;4996982;28;21002;-75
2024/04/07 03:00:26;;;;;;;;;;;;;;;12.94;100.00;95855.78;4997051;28;19936;-72
2024/04/07 03:02:52;;;;;;;;;;;;;;;12.92;100.00;95858.00;4999064;28;20521;-73
2024/04/07 03:05:18;;;;;;;;;;;;;;;12.86;100.00;95849.13;4996669;28;19932;-75
2024/04/07 03:07:46;;;;;;;;;;;;;;;12.82;100.00;95847.31;4983689;28;20382;-74
2024/04/07 03:10:16;;;;;;;;;;;;;;;12.73;100.00;95843.63;4997368;28;19937;-74
2024/04/07 03:12:42;;;;;;;;;;;;;;;12.74;100.00;95839.84;4997707;28;19929;-74
2024/04/07 03:15:09;;;;;;;;;;;;;;;12.74;100.00;95826.34;5001303;28;19933;-75
2024/04/07 03:17:35;;;;;;;;;;;;;;;12.71;100.00;95829.63;4998785;28;19929;-76
2024/04/07 03:20:01;;;;;;;;;;;;;;;12.70;100.00;95822.63;4997958;28;19936;-76
2024/04/07 03:22:27;;;;;;;;;;;;;;;12.65;100.00;95828.84;4998302;28;19925;-74
2024/04/07 03:24:53;;;;;;;;;;;;;;;12.65;100.00;95825.34;4997196;28;19929;-72
2024/04/07 03:27:19;;;;;;;;;;;;;;;12.63;100.00;95822.16;4994882;28;19936;-73
2024/04/07 03:29:46;;;;;;;;;;;;;;;12.62;100.00;95831.34;4996118;28;19929;-74
2024/04/07 03:32:12;;;;;;;;;;;;;;;12.64;100.00;95824.53;4997070;28;20294;-76
2024/04/07 03:34:38;;;;;;;;;;;;;;;12.62;100.00;95834.03;4996064;28;19940;-73
2024/04/07 03:37:07;;;;;;;;;;;;;;;12.59;100.00;95837.28;4998066;28;19929;-75
2024/04/07 03:39:33;;;;;;;;;;;;;;;12.53;100.00;95827.66;4998137;28;19929;-74
2024/04/07 03:42:02;;;;;;;;;;;;;;;12.53;100.00;95824.94;4999439;28;19936;-74
2024/04/07 03:44:30;;;;;;;;;;;;;;;12.47;100.00;95822.31;4997979;28;19935;-76
2024/04/07 03:46:57;;;;;;;;;;;;;;;12.48;100.00;95820.41;4996707;28;19929;-76
2024/04/07 03:49:24;;;;;;;;;;;;;;;12.44;100.00;95830.94;4999212;28;20421;-76
2024/04/07 03:51:51;;;;;;;;;;;;;;;12.45;100.00;95832.56;4995828;28;19937;-73
2024/04/07 03:54:18;;;;;;;;;;;;;;;12.41;100.00;95828.84;5005409;28;19940;-74
2024/04/07 03:56:44;;;;;;;;;;;;;;;12.40;100.00;95816.44;4996399;28;19929;-76
2024/04/07 03:59:10;;;;;;;;;;;;;;;12.41;100.00;95825.34;4998603;28;19929;-75
2024/04/07 04:01:39;;;;;;;;;;;;;;;12.35;100.00;95811.09;4998397;28;19936;-77
2024/04/07 04:04:06;;;;;;;;;;;;;;;12.32;100.00;95817.06;4995005;28;19929;-75
2024/04/07 04:06:32;;;;;;;;;;;;;;;12.29;100.00;95812.22;4999378;28;20397;-73
2024/04/07 04:08:58;;;;;;;;;;;;;;;12.28;100.00;95817.88;4997018;28;19960;-77
2024/04/07 04:11:26;;;;;;;;;;;;;;;12.26;100.00;95812.81;4999083;28;20379;-76
2024/04/07 04:13:52;;;;;;;;;;;;;;;12.25;100.00;95819.28;4995012;28;19936;-74
2024/04/07 04:16:18;;;;;;;;;;;;;;;12.15;100.00;95813.16;5002226;28;20307;-75
2024/04/07 04:18:45;;;;;;;;;;;;;;;12.10;100.00;95811.31;4998064;28;19929;-73
2024/04/07 04:21:11;;;;;;;;;;;;;;;12.13;100.00;95808.03;4996404;28;19934;-73
2024/04/07 04:23:41;;;;;;;;;;;;;;;12.19;100.00;95811.53;4995669;28;19929;-74
2024/04/07 04:26:07;;;;;;;;;;;;;;;12.19;100.00;95823.13;5000636;28;19929;-77
2024/04/07 04:28:33;;;;;;;;;;;;;;;12.09;100.00;95818.59;4996024;28;20375;-72
2024/04/07 04:31:00;;;;;;;;;;;;;;;12.05;100.00;95814.06;4995182;28;19933;-74
2024/04/07 04:33:27;;;;;;;;;;;;;;;12.01;100.00;95819.19;4999044;28;19936;-74
2024/04/07 04:35:53;;;;;;;;;;;;;;;11.96;100.00;95813.06;4999784;28;19944;-74
2024/04/07 04:38:19;;;;;;;;;;;;;;;11.96;100.00;95810.38;4998824;28;19933;-74
2024/04/07 04:40:56;;;;;;;;;;;;;;;12.01;100.00;95818.41;4985457;28;20286;-74
2024/04/07 04:43:23;;;;;;;;;;;;;;;12.04;100.00;95812.47;4998970;28;19956;-74
2024/04/07 04:46:03;;;;;;;;;;;;;;;12.03;100.00;95817.03;4996791;28;19933;-77
2024/04/07 04:48:33;;;;;;;;;;;;;;;12.00;100.00;95814.09;4996222;28;19976;-73
2024/04/07 04:50:59;;;;;;;;;;;;;;;11.96;100.00;95813.06;4996177;28;20401;-74
2024/04/07 04:53:26;;;;;;;;;;;;;;;11.82;100.00;95812.09;4997579;28;19929;-73
2024/04/07 04:55:52;;;;;;;;;;;;;;;11.77;100.00;95804.03;4998241;28;19937;-77
2024/04/07 04:58:19;;;;;;;;;;;;;;;11.80;100.00;95803.47;4994947;28;19929;-74
2024/04/07 05:00:46;;;;;;;;;;;;;;;11.77;100.00;95804.03;4996428;28;19929;-74
2024/04/07 05:03:12;;;;;;;;;;;;;;;11.67;100.00;95805.69;4995328;28;19928;-75
2024/04/07 05:05:38;;;;;;;;;;;;;;;11.61;100.00;95796.03;4996067;28;19936;-74
2024/04/07 05:08:05;;;;;;;;;;;;;;;11.65;100.00;95797.09;4993874;28;19929;-74
2024/04/07 05:10:31;;;;;;;;;;;;;;;11.70;100.00;95794.34;4994273;28;19943;-74
2024/04/07 05:12:57;;;;;;;;;;;;;;;11.78;100.00;95789.47;5001276;28;19937;-75
2024/04/07 05:15:24;;;;;;;;;;;;;;;11.80;100.00;95792.69;4994092;28;20442;-74
2024/04/07 05:17:50;;;;;;;;;;;;;;;11.88;100.00;95794.78;5000326;28;20048;-73
2024/04/07 05:20:16;;;;;;;;;;;;;;;11.94;100.00;95788.28;4998628;28;19930;-74
2024/04/07 05:22:42;;;;;;;;;;;;;;;11.97;100.00;95783.16;4994841;28;19929;-73
2024/04/07 05:25:09;;;;;;;;;;;;;;;12.02;100.00;95787.69;4966397;28;20743;-75
2024/04/07 05:27:35;;;;;;;;;;;;;;;12.05;100.00;95781.75;4980343;28;19930;-74
2024/04/07 05:30:05;;;;;;;;;;;;;;;12.06;100.00;95780.63;4992587;28;19936;-75
2024/04/07 05:32:32;;;;;;;;;;;;;;;12.09;100.00;95797.03;4999621;28;19929;-74
2024/04/07 05:34:59;;;;;;;;;;;;;;;12.12;100.00;95795.69;4996087;28;19933;-74
2024/04/07 05:37:26;;;;;;;;;;;;;;;12.12;100.00;95795.69;4981187;28;19929;-73
2024/04/07 05:39:53;;;;;;;;;;;;;;;12.18;100.00;95794.56;4995556;28;20375;-75
2024/04/07 05:42:19;;;;;;;;;;;;;;;12.21;100.00;95801.25;4978052;28;20263;-75
2024/04/07 05:44:45;;;;;;;;;;;;;;;12.28;100.00;95789.03;4994035;28;19929;-73
2024/04/07 05:47:11;;;;;;;;;;;;;;;12.36;100.00;95801.91;4997735;28;19958;-72
2024/04/07 05:49:38;;;;;;;;;;;;;;;12.40;100.00;95807.56;4994730;28;19929;-75
2024/04/07 05:52:05;;;;;;;;;;;;;;;12.39;100.00;95806.75;4995490;28;19936;-75
2024/04/07 05:54:31;;;;;;;;;;;;;;;12.41;100.00;95807.28;4994833;28;19961;-74
2024/04/07 05:56:57;;;;;;;;;;;;;;;12.45;100.00;95811.00;4997650;28;20045;-76
2024/04/07 05:59:24;;;;;;;;;;;;;;;12.45;100.00;95808.31;4994507;28;19929;-74
2024/04/07 06:01:51;;;;;;;;;;;;;;;12.49;100.00;95817.41;4997121;28;19929;-76
2024/04/07 06:04:17;;;;;;;;;;;;;;;12.55;100.00;95812.81;4996896;28;20625;-74
2024/04/07 06:06:43;;;;;;;;;;;;;;;12.71;100.00;95821.53;5001267;28;19937;-76
2024/04/07 06:09:09;;;;;;;;;;;;;;;12.88;100.00;95822.69;5001692;28;19934;-72
2024/04/07 06:11:36;;;;;;;;;;;;;;;13.01;100.00;95823.06;5016574;28;19929;-75
2024/04/07 06:14:03;;;;;;;;;;;;;;;13.04;100.00;95817.91;5002145;28;19929;-75
2024/04/07 06:16:29;;;;;;;;;;;;;;;13.25;100.00;95821.19;5000195;28;19945;-77
2024/04/07 06:18:55;;;;;;;;;;;;;;;13.41;100.00;95833.41;4999584;28;19936;-74
2024/04/07 06:21:21;;;;;;;;;;;;;;;13.68;100.00;95830.06;4998451;28;19962;-74
2024/04/07 06:23:47;;;;;;;;;;;;;;;13.80;100.00;95841.25;4997329;28;20342;-75
2024/04/07 06:26:14;;;;;;;;;;;;;;;13.90;100.00;95846.50;5000091;28;19930;-73
2024/04/07 06:28:40;;;;;;;;;;;;;;;14.03;100.00;95861.16;5003386;28;20261;-76
2024/04/07 06:31:06;;;;;;;;;;;;;;;14.18;100.00;95860.13;5001645;28;19936;-75
2024/04/07 06:33:32;;;;;;;;;;;;;;;14.35;100.00;95868.50;4999698;28;20543;-72
2024/04/07 06:35:59;;;;;;;;;;;;;;;14.48;100.00;95878.59;4999847;28;20276;-73
2024/04/07 06:38:25;;;;;;;;;;;;;;;14.61;100.00;95890.59;5000269;28;19945;-75
2024/04/07 06:40:51;;;;;;;;;;;;;;;14.78;100.00;95899.72;5006814;28;19929;-76
2024/04/07 06:43:17;;;;;;;;;;;;;;;14.89;100.00;95904.97;4995640;28;19928;-76
2024/04/07 06:45:44;;;;;;;;;;;;;;;15.18;100.00;95916.34;5003132;28;19929;-72
2024/04/07 06:48:10;;;;;;;;;;;;;;;15.37;100.00;95919.78;4998702;28;19933;-73
2024/04/07 06:50:36;;;;;;;;;;;;;;;15.58;100.00;95925.63;4997304;28;20449;-76
2024/04/07 06:53:03;;;;;;;;;;;;;;;15.87;100.00;95930.72;5003572;28;19937;-75
2024/04/07 06:55:29;;;;;;;;;;;;;;;16.35;100.00;95953.53;4998566;28;19959;-73
2024/04/07 06:57:55;;;;;;;;;;;;;;;17.21;100.00;95958.78;5000801;28;19929;-74
2024/04/07 07:00:21;;;;;;;;;;;;;;;18.21;100.00;95970.69;5000838;28;20016;-73
2024/04/07 07:02:47;;;;;;;;;;;;;;;18.43;100.00;95979.84;5001389;28;20373;-72
2024/04/07 07:05:14;;;;;;;;;;;;;;;17.77;100.00;95988.00;4997798;28;19930;-76
2024/04/07 07:07:40;;;;;;;;;;;;;;;17.33;100.00;95988.91;4998519;28;19933;-74
2024/04/07 07:10:06;;;;;;;;;;;;;;;17.20;100.00;96003.38;5002567;28;20294;-76
2024/04/07 07:12:32;;;;;;;;;;;;;;;17.08;100.00;96008.56;5002037;28;19936;-72
2024/04/07 07:14:59;;;;;;;;;;;;;;;17.09;100.00;96015.59;5000283;28;20268;-77
2024/04/07 07:17:25;;;;;;;;;;;;;;;17.05;100.00;96020.03;4997461;28;19929;-75
2024/04/07 07:19:51;;;;;;;;;;;;;;;17.02;100.00;96026.09;4997539;28;19936;-76
2024/04/07 07:22:17;;;;;;;;;;;;;;;17.07;100.00;96024.06;5000571;28;20336;-74
2024/04/07 07:24:43;;;;;;;;;;;;;;;16.96;100.00;96030.03;5002372;28;20247;-73
2024/04/07 07:27:09;;;;;;;;;;;;;;;17.05;100.00;96026.28;5001336;28;19934;-76
2024/04/07 07:29:35;;;;;;;;;;;;;;;17.08;100.00;96035.72;4997934;28;19936;-74
2024/04/07 07:32:02;;;;;;;;;;;;;;;17.05;100.00;96030.91;4997285;28;19936;-75
2024/04/07 07:34:28;;;;;;;;;;;;;;;16.91;100.00;96035.59;5001020;28;19937;-76
2024/04/07 07:36:54;;;;;;;;;;;;;;;16.91;100.00;96033.69;5001369;28;19936;-75
2024/04/07 07:39:20;;;;;;;;;;;;;;;16.97;100.00;96035.16;4998503;28;19938;-75
2024/04/07 07:41:46;;;;;;;;;;;;;;;17.21;100.00;96023.19;4998129;28;19929;-75
2024/04/07 07:44:12;;;;;;;;;;;;;;;17.32;100.00;96019.09;5002223;28;19928;-75
2024/04/07 07:46:39;;;;;;;;;;;;;;;17.61;100.00;96016.72;5004186;28;20502;-75
2024/04/07 07:49:06;;;;;;;;;;;;;;;17.74;100.00;96026.72;4998567;28;19929;-75
2024/04/07 07:51:32;;;;;;;;;;;;;;;17.90;100.00;96025.16;5002180;28;19929;-75
2024/04/07 07:53:58;;;;;;;;;;;;;;;17.95;100.00;96047.91;4997952;28;19941;-75
2024/04/07 07:56:25;;;;;;;;;;;;;;;18.11;100.00;96046.38;4992213;28;19945;-75
2024/04/07 07:58:51;;;;;;;;;;;;;;;18.44;100.00;96041.34;4992515;28;19930;-75
2024/04/07 08:01:17;;;;;;;;;;;;;;;18.83;100.00;96037.75;4995259;28;19932;-75
2024/04/07 08:03:43;;;;;;;;;;;;;;;19.22;100.00;96042.22;4995391;28;19929;-75
2024/04/07 08:06:09;;;;;;;;;;;;;;;19.52;100.00;96051.34;4993379;28;19929;-75
2024/04/07 08:08:35;;;;;;;;;;;;;;;19.72;100.00;96056.94;4993900;28;19956;-75
2024/04/07 08:11:01;;;;;;;;;;;;;;;20.04;100.00;96060.97;4978218;28;19929;-75
2024/04/07 08:13:28;;;;;;;;;;;;;;;20.22;100.00;96067.19;4998614;28;19929;-75
2024/04/07 08:15:54;;;;;;;;;;;;;;;20.43;100.00;96073.53;4996059;28;19956;-77
2024/04/07 08:18:20;;;;;;;;;;;;;;;20.69;100.00;96067.91;4995622;28;19941;-75
2024/04/07 08:20:46;;;;;;;;;;;;;;;20.91;100.00;96089.44;4996457;28;19929;-75
2024/04/07 08:23:12;;;;;;;;;;;;;;;20.85;100.00;96087.25;4994819;28;19937;-75
2024/04/07 08:25:38;;;;;;;;;;;;;;;20.86;100.00;96081.44;4995804;28;20837;-74
2024/04/07 08:28:05;;;;;;;;;;;;;;;20.97;100.00;96090.03;4990645;28;19929;-75
2024/04/07 08:30:32;;;;;;;;;;;;;;;21.13;100.00;96103.91;4993252;28;19952;-74
2024/04/07 08:32:58;;;;;;;;;;;;;;;21.28;100.00;96100.63;4992521;28;19933;-75
2024/04/07 08:35:25;;;;;;;;;;;;;;;21.16;100.00;96098.63;4997270;28;19952;-75
2024/04/07 08:37:51;;;;;;;;;;;;;;;21.19;100.00;96108.09;4992969;28;20291;-75
2024/04/07 08:40:17;;;;;;;;;;;;;;;21.14;100.00;96102.78;4993363;28;20283;-75
2024/04/07 08:42:44;;;;;;;;;;;;;;;21.35;100.00;96112.63;4991656;28;19937;-76
2024/04/07 08:45:14;;;;;;;;;;;;;;;21.39;100.00;96101.03;4993846;28;22564;-75
2024/04/07 08:47:42;;;;;;;;;;;;;;;21.49;100.00;96109.59;4996018;28;19933;-76
2024/04/07 08:50:09;;;;;;;;;;;;;;;21.52;100.00;96106.22;4995471;28;19936;-75
2024/04/07 08:52:36;;;;;;;;;;;;;;;21.80;100.00;96106.41;4991848;28;19929;-75
2024/04/07 08:55:02;;;;;;;;;;;;;;;22.03;100.00;96102.19;4992561;28;19937;-76
2024/04/07 08:57:28;;;;;;;;;;;;;;;22.17;100.00;96107.34;4993333;28;19936;-75
2024/04/07 08:59:56;;;;;;;;;;;;;;;22.16;100.00;96108.47;4993489;28;19929;-76
2024/04/07 09:02:22;;;;;;;;;;;;;;;21.60;100.00;96113.53;4993493;28;19930;-75
2024/04/07 09:04:48;;;;;;;;;;;;;;;21.84;100.00;96115.56;4994299;28;19952;-75
2024/04/07 09:07:14;;;;;;;;;;;;;;;21.81;100.00;96123.66;4991772;28;20006;-75
2024/04/07 09:09:41;;;;;;;;;;;;;;;21.89;100.00;96125.50;4991341;28;20523;-75
2024/04/07 09:12:10;;;;;;;;;;;;;;;22.03;100.00;96135.03;4993377;28;19925;-75
2024/04/07 09:14:39;;;;;;;;;;;;;;;22.34;100.00;96136.47;4991609;28;19930;-75
2024/04/07 09:17:06;;;;;;;;;;;;;;;22.36;100.00;96134.97;4995650;28;19930;-75
2024/04/07 09:19:33;;;;;;;;;;;;;;;22.37;100.00;96135.78;4995969;28;20374;-76
2024/04/07 09:21:59;;;;;;;;;;;;;;;22.35;100.00;96138.88;4996756;28;19936;-75
2024/04/07 09:24:26;;;;;;;;;;;;;;;22.71;100.00;96134.56;4995180;28;19930;-75
2024/04/07 09:26:53;;;;;;;;;;;;;;;22.53;100.00;96134.78;4992938;28;19930;-75
2024/04/07 09:29:19;;;;;;;;;;;;;;;22.52;100.00;96135.91;4975898;28;19930;-75
2024/04/07 09:31:45;;;;;;;;;;;;;;;22.39;100.00;96137.03;4995402;28;19945;-75
2024/04/07 09:34:11;;;;;;;;;;;;;;;22.44;100.00;96134.06;4991475;28;19929;-75
2024/04/07 09:36:37;;;;;;;;;;;;;;;22.37;100.00;96136.56;4999859;28;19936;-77
2024/04/07 09:39:04;;;;;;;;;;;;;;;22.21;100.00;96137.59;4999975;28;19930;-74
2024/04/07 09:41:30;;;;;;;;;;;;;;;22.18;100.00;96141.81;5000210;28;20384;-76
2024/04/07 09:43:59;;;;;;;;;;;;;;;22.11;100.00;96139.63;4996878;28;20383;-75
2024/04/07 09:46:27;;;;;;;;;;;;;;;22.39;100.00;96139.78;4983318;28;19930;-77
2024/04/07 09:48:58;;;;;;;;;;;;;;;22.48;100.00;96128.72;4996426;28;19936;-74
2024/04/07 09:51:26;;;;;;;;;;;;;;;22.83;100.00;96131.84;4996510;28;19930;-76
2024/04/07 09:54:03;;;;;;;;;;;;;;;22.94;100.00;96135.69;4996444;28;20109;-74
2024/04/07 09:56:33;;;;;;;;;;;;;;;23.03;100.00;96136.38;4998313;28;19930;-74
2024/04/07 09:59:02;;;;;;;;;;;;;;;23.14;100.00;96137.53;5002256;28;19952;-75
2024/04/07 10:01:29;;;;;;;;;;;;;;;23.36;100.00;96129.94;4998127;28;19956;-73
2024/04/07 10:03:56;;;;;;;;;;;;;;;23.57;100.00;96117.66;4996319;28;19992;-74
2024/04/07 10:06:23;;;;;;;;;;;;;;;23.64;100.00;96123.34;5000986;28;19929;-75
2024/04/07 10:08:50;;;;;;;;;;;;;;;23.58;100.00;96123.94;4999213;28;19929;-75
2024/04/07 10:11:16;;;;;;;;;;;;;;;23.35;100.00;96128.34;5001424;28;20443;-75
2024/04/07 10:13:42;;;;;;;;;;;;;;;23.32;100.00;96124.34;4985072;28;19929;-76
2024/04/07 10:16:09;;;;;;;;;;;;;;;23.31;100.00;96133.69;4998492;28;19976;-73
2024/04/07 10:18:38;;;;;;;;;;;;;;;23.73;100.00;96120.47;4999601;28;19930;-72
2024/04/07 10:21:08;;;;;;;;;;;;;;;23.69;100.00;96114.06;4996390;28;19929;-72
2024/04/07 10:23:35;;;;;;;;;;;;;;;23.71;100.00;96114.53;4997867;28;20187;-73
2024/04/07 10:26:05;;;;;;;;;;;;;;;23.74;100.00;96124.81;4997353;28;19937;-73
2024/04/07 10:28:48;;;;;;;;;;;;;;;23.92;100.00;96126.09;4998641;28;19941;-72
2024/04/07 10:31:24;;;;;;;;;;;;;;;23.94;100.00;96123.00;4999989;28;19930;-74
2024/04/07 10:33:50;;;;;;;;;;;;;;;23.97;100.00;96125.81;4997475;28;20023;-73
2024/04/07 10:36:17;;;;;;;;;;;;;;;23.98;100.00;96124.69;4997726;28;20287;-73
2024/04/07 10:38:44;;;;;;;;;;;;;;;23.88;100.00;96127.16;4997789;28;20617;-71
2024/04/07 10:41:17;;;;;;;;;;;;;;;23.77;100.00;96126.84;4999222;28;19929;-73
2024/04/07 10:43:44;;;;;;;;;;;;;;;24.04;100.00;96123.25;4992769;28;19930;-72
2024/04/07 10:46:10;;;;;;;;;;;;;;;24.00;100.00;96127.88;4996092;28;19933;-71
2024/04/07 10:48:36;;;;;;;;;;;;;;;23.99;100.00;96130.97;4995613;28;20303;-74
2024/04/07 10:51:12;;;;;;;;;;;;;;;24.21;100.00;96135.13;4996781;28;19930;-73
2024/04/07 10:53:42;;;;;;;;;;;;;;;24.11;100.00;96127.38;4998996;28;19929;-75
2024/04/07 10:56:09;;;;;;;;;;;;;;;23.97;100.00;96125.81;4989275;28;20158;-71
2024/04/07 10:58:37;;;;;;;;;;;;;;;24.10;100.00;96136.75;4973190;28;20289;-73
2024/04/07 11:01:04;;;;;;;;;;;;;;;23.80;100.00;96142.63;4976278;28;19949;-72
2024/04/07 11:03:30;;;;;;;;;;;;;;;24.00;100.00;96135.31;4975770;28;19937;-73
2024/04/07 11:06:00;;;;;;;;;;;;;;;23.91;100.00;96135.47;4958615;28;20343;-73
2024/04/07 11:08:27;;;;;;;;;;;;;;;23.79;100.00;96129.25;4974008;28;19929;-75
2024/04/07 11:10:54;;;;;;;;;;;;;;;23.84;100.00;96138.03;4975560;28;20377;-75
2024/04/07 11:13:21;;;;;;;;;;;;;;;23.90;100.00;96131.13;4980180;28;19929;-75
2024/04/07 11:15:51;;;;;;;;;;;;;;;24.11;100.00;96135.63;4976395;28;19945;-72
2024/04/07 11:18:21;;;;;;;;;;;;;;;24.18;100.00;96128.34;4975031;28;19936;-74
2024/04/07 11:20:48;;;;;;;;;;;;;;;24.09;100.00;96135.16;4977262;28;20418;-72
2024/04/07 11:23:15;;;;;;;;;;;;;;;23.68;100.00;96134.41;4973395;28;19930;-73
2024/04/07 11:25:42;;;;;;;;;;;;;;;23.82;100.00;96131.28;4976232;28;19933;-74
2024/04/07 11:28:09;;;;;;;;;;;;;;;23.81;100.00;96137.94;4974865;28;20264;-74
2024/04/07 11:30:36;;;;;;;;;;;;;;;23.93;100.00;96129.63;4972757;28;19937;-73
2024/04/07 11:33:06;;;;;;;;;;;;;;;23.85;100.00;96128.63;4974657;28;19930;-75
2024/04/07 11:35:33;;;;;;;;;;;;;;;23.65;100.00;96143.38;4972412;28;20427;-72
2024/04/07 11:37:59;;;;;;;;;;;;;;;23.71;100.00;96144.72;4982880;28;19930;-75
2024/04/07 11:40:26;;;;;;;;;;;;;;;23.73;100.00;96150.66;4958892;28;19930;-74
2024/04/07 11:42:52;;;;;;;;;;;;;;;23.67;100.00;96144.59;4975373;28;19930;-72
2024/04/07 11:45:19;;;;;;;;;;;;;;;23.88;100.00;96138.94;4974273;28;19930;-73
2024/04/07 11:47:46;;;;;;;;;;;;;;;23.88;100.00;96132.63;4971804;28;19937;-74
2024/04/07 11:50:12;;;;;;;;;;;;;;;23.92;100.00;96131.56;4960595;28;19937;-74
2024/04/07 11:52:39;;;;;;;;;;;;;;;24.02;100.00;96133.81;4973425;28;19930;-75
2024/04/07 11:55:05;;;;;;;;;;;;;;;24.04;100.00;96137.00;4975375;28;19937;-75
2024/04/07 11:57:32;;;;;;;;;;;;;;;24.09;100.00;96126.91;4993700;28;19934;-71
2024/04/07 11:59:59;;;;;;;;;;;;;;;23.99;100.00;96123.53;4994869;28;19940;-73
2024/04/07 12:02:26;;;;;;;;;;;;;;;23.95;100.00;96128.13;4991967;28;19929;-71
2024/04/07 12:04:52;;;;;;;;;;;;;;;23.69;100.00;96136.03;4995029;28;20433;-74
2024/04/07 12:07:19;;;;;;;;;;;;;;;23.72;100.00;96124.34;4995567;28;19929;-73
2024/04/07 12:09:45;;;;;;;;;;;;;;;23.84;100.00;96113.31;4993185;28;19930;-72
2024/04/07 12:12:11;;;;;;;;;;;;;;;23.76;100.00;96108.78;4996335;28;19934;-71
2024/04/07 12:14:38;;;;;;;;;;;;;;;24.05;100.00;96115.81;4992023;28;19930;-74
2024/04/07 12:17:04;;;;;;;;;;;;;;;24.24;100.00;96116.00;4981974;28;19929;-73
2024/04/07 12:19:30;;;;;;;;;;;;;;;24.43;100.00;96120.78;4993964;28;19936;-74
2024/04/07 12:21:57;;;;;;;;;;;;;;;24.29;100.00;96118.47;4993932;28;20332;-73
2024/04/07 12:24:23;;;;;;;;;;;;;;;23.90;100.00;96120.13;4995687;28;19936;-72
2024/04/07 12:26:50;;;;;;;;;;;;;;;23.90;100.00;96109.16;4997087;28;19930;-73
2024/04/07 12:29:17;;;;;;;;;;;;;;;23.72;100.00;96110.63;4994242;28;19937;-73
2024/04/07 12:31:43;;;;;;;;;;;;;;;23.99;100.00;96109.81;4992789;28;19930;-73
2024/04/07 12:34:09;;;;;;;;;;;;;;;24.01;100.00;96109.44;4995114;28;19937;-74
2024/04/07 12:36:35;;;;;;;;;;;;;;;23.96;100.00;96104.22;4996118;28;20200;-76